Portada
METAR-TAF:

METAR-TAF

Aeroports :

Luang Namtha, Laos

latitud: 20-57-38N, longitud: 101-24-09E, altitud: 600 m

Observació

L'informe es va fer fa 2 hores i 20 minuts, a les 12:00 UTC
Vent 2 kt del Sud
Temperatura 28°C
Humitat 48%
Pressió 1007 hPa
Visibilitat: 2000 m
Escasses núvols a una alçada de 2000 ft
fum

METAR: VLLN 071200Z 18002KT 2000 FU FEW020 28/16 Q1007 NOSIG

Hora: 19:50 (14:20 UTC)

Pronòstic

L'informe es va fer fa 3 hores i 20 minuts, a les 11:00 UTC
Pronòstic vàlid del 07 a les 12 UTC al 08 a les 12 UTC
Vent 4 kt del Oest
Visibilitat: 3000 m
Escasses núvols a una alçada de 2000 ft
Núvols disperses a una alçada de 10000 ft
fum

TAF: VLLN 071100Z 0712/0812 27004KT 3000 FU FEW020 SCT100

Observacions i pronòstics meteorològics de més de 4000 aeroports (METAR i TAF).

Les estacions disponibles són els punts grocs i vermells al mapa.

Posi el ratolí al punt desitjat per veure el nom de l'estació.

Feu clic per veure les observacions i els pronòstics meteorològics.

Per canviar el mapa: feu clic els botons verds amb una creu de color negre per apropar; al botó verd amb un guió per allunyar la imatge; o en les fletxes verdes per a mapes adjacents.


METAR-TAF: